createdAt,value
2018-07-21T00:00:49.929Z,19.00
2018-07-21T00:01:53.620Z,19.50
2018-07-21T00:02:56.827Z,21.50
2018-07-21T00:04:00.250Z,19.50
2018-07-21T00:05:06.458Z,20.50
2018-07-21T00:06:09.328Z,20.00
2018-07-21T00:07:12.291Z,20.75
2018-07-21T00:08:15.739Z,21.75
2018-07-21T00:09:23.020Z,20.25
2018-07-21T00:10:26.457Z,20.25
2018-07-21T00:11:35.020Z,22.00
2018-07-21T00:12:38.551Z,20.75
2018-07-21T00:13:41.454Z,21.25
2018-07-21T00:14:45.237Z,19.25
2018-07-21T00:15:48.929Z,18.25
2018-07-21T00:16:52.701Z,20.75
2018-07-21T00:17:55.925Z,20.50
2018-07-21T00:18:58.804Z,20.75
2018-07-21T00:20:01.792Z,21.25
2018-07-21T00:21:04.828Z,18.50
2018-07-21T00:22:08.921Z,18.50
2018-07-21T00:23:11.748Z,20.50
2018-07-21T00:24:15.371Z,17.75
2018-07-21T00:25:19.377Z,17.00
2018-07-21T00:26:26.162Z,18.25
2018-07-21T00:27:29.272Z,16.50
2018-07-21T00:28:32.262Z,18.75
2018-07-21T00:29:35.188Z,18.00
2018-07-21T00:30:39.367Z,19.50
2018-07-21T00:31:43.188Z,17.75
2018-07-21T00:32:47.200Z,19.00
2018-07-21T00:33:50.025Z,17.50
2018-07-21T00:34:52.923Z,18.50
2018-07-21T00:35:55.723Z,16.75
2018-07-21T00:36:58.918Z,14.75
2018-07-21T00:38:01.982Z,18.00
2018-07-21T00:39:05.607Z,16.25
2018-07-21T00:40:11.179Z,15.00
2018-07-21T00:41:14.149Z,17.00
2018-07-21T00:42:17.059Z,15.00
2018-07-21T00:43:21.469Z,19.00
2018-07-21T00:44:24.535Z,17.25
2018-07-21T00:45:29.699Z,19.00
2018-07-21T00:46:32.593Z,19.75
2018-07-21T00:47:36.527Z,19.50
2018-07-21T00:48:39.403Z,17.75
2018-07-21T00:49:42.757Z,17.25
2018-07-21T00:50:45.610Z,18.50
2018-07-21T00:51:48.481Z,18.00
2018-07-21T00:52:51.365Z,18.50
2018-07-21T00:53:54.344Z,17.75
2018-07-21T00:55:00.203Z,16.75
2018-07-21T00:56:04.338Z,18.00
2018-07-21T00:57:07.299Z,17.75
2018-07-21T00:58:12.627Z,16.50
2018-07-21T00:59:15.641Z,16.50
2018-07-21T01:00:18.502Z,19.75
2018-07-21T01:01:21.381Z,18.50
2018-07-21T01:02:24.718Z,20.00
2018-07-21T01:03:28.994Z,19.25
2018-07-21T01:04:32.122Z,19.00
2018-07-21T01:05:35.016Z,19.00
2018-07-21T01:06:37.884Z,20.00
2018-07-21T01:07:40.746Z,19.25
2018-07-21T01:08:45.565Z,19.25
2018-07-21T01:09:48.622Z,19.00
2018-07-21T01:10:51.527Z,21.25
2018-07-21T01:11:55.270Z,21.25
2018-07-21T01:12:58.095Z,23.75
2018-07-21T01:14:01.114Z,23.50
2018-07-21T01:15:04.432Z,22.25
2018-07-21T01:16:07.455Z,20.50
2018-07-21T01:17:10.306Z,22.25
2018-07-21T01:18:13.334Z,20.25
2018-07-21T01:19:16.326Z,22.00
2018-07-21T01:20:19.181Z,21.75
2018-07-21T01:21:22.326Z,21.00
2018-07-21T01:22:25.293Z,21.00
2018-07-21T01:23:28.146Z,21.25
2018-07-21T01:24:30.971Z,20.00
2018-07-21T01:25:34.243Z,19.50
2018-07-21T01:26:37.092Z,19.75
2018-07-21T01:27:40.281Z,20.75
2018-07-21T01:28:43.259Z,23.75
2018-07-21T01:29:46.220Z,22.75
2018-07-21T01:30:49.126Z,24.00
2018-07-21T01:31:52.210Z,23.00
2018-07-21T01:32:55.191Z,23.25
2018-07-21T01:33:58.379Z,22.50
2018-07-21T01:35:01.360Z,21.75
2018-07-21T01:36:04.344Z,23.00
2018-07-21T01:37:08.292Z,20.25
2018-07-21T01:38:11.724Z,23.75
2018-07-21T01:39:14.666Z,22.25
2018-07-21T01:40:18.450Z,19.50
2018-07-21T01:41:21.387Z,21.25
2018-07-21T01:42:25.614Z,21.00
2018-07-21T01:43:28.735Z,21.25
2018-07-21T01:44:33.316Z,21.00
2018-07-21T01:45:36.988Z,21.00
2018-07-21T01:46:47.666Z,21.75
2018-07-21T01:47:51.857Z,21.00
2018-07-21T01:48:56.242Z,20.25
2018-07-21T01:49:59.258Z,19.75
2018-07-21T01:51:02.341Z,20.00
2018-07-21T01:52:07.417Z,20.75
2018-07-21T01:53:11.069Z,20.00
2018-07-21T01:54:17.027Z,22.25
2018-07-21T01:55:20.827Z,21.00
2018-07-21T01:56:23.893Z,19.75
2018-07-21T01:57:29.027Z,21.75
2018-07-21T01:58:32.139Z,19.75
2018-07-21T01:59:35.453Z,21.50
2018-07-21T02:00:38.348Z,22.25
2018-07-21T02:01:41.243Z,22.00
2018-07-21T02:02:44.130Z,22.50
2018-07-21T02:03:48.597Z,23.75
2018-07-21T02:04:51.457Z,21.25
2018-07-21T02:05:54.713Z,19.50
2018-07-21T02:06:57.765Z,21.50
2018-07-21T02:08:00.641Z,22.25
2018-07-21T02:09:03.793Z,20.50
2018-07-21T02:10:06.910Z,22.75
2018-07-21T02:11:10.117Z,25.25
2018-07-21T02:12:15.294Z,24.00
2018-07-21T02:13:18.218Z,24.25
2018-07-21T02:14:21.847Z,24.25
2018-07-21T02:15:24.717Z,23.50
2018-07-21T02:16:27.636Z,22.25
2018-07-21T02:17:30.507Z,24.00
2018-07-21T02:18:33.712Z,22.50
2018-07-21T02:19:36.582Z,22.75
2018-07-21T02:20:41.462Z,23.25
2018-07-21T02:21:45.058Z,20.25
2018-07-21T02:22:48.047Z,24.00
2018-07-21T02:23:51.142Z,23.25
2018-07-21T02:24:58.556Z,24.00
2018-07-21T02:26:02.227Z,21.25
2018-07-21T02:27:05.153Z,22.75
2018-07-21T02:28:08.017Z,23.75
2018-07-21T02:29:10.847Z,23.25
2018-07-21T02:30:13.727Z,23.00
2018-07-21T02:31:16.873Z,24.00
2018-07-21T02:32:19.713Z,23.50
2018-07-21T02:33:23.178Z,24.00
2018-07-21T02:34:25.999Z,24.00
2018-07-21T02:35:28.970Z,25.75
2018-07-21T02:36:31.812Z,27.00
2018-07-21T02:37:35.043Z,25.00
2018-07-21T02:38:38.981Z,27.00
2018-07-21T02:39:41.832Z,25.75
2018-07-21T02:40:45.288Z,24.75
2018-07-21T02:41:48.163Z,26.75
2018-07-21T02:42:51.048Z,26.25
2018-07-21T02:43:53.873Z,24.00
2018-07-21T02:44:56.733Z,24.00
2018-07-21T02:45:59.629Z,27.00
2018-07-21T02:47:02.451Z,27.25
2018-07-21T02:48:06.130Z,26.25
2018-07-21T02:49:09.027Z,27.00
2018-07-21T02:50:12.270Z,27.00
2018-07-21T02:51:15.116Z,26.75
2018-07-21T02:52:17.957Z,25.75
2018-07-21T02:53:20.803Z,27.50
2018-07-21T02:54:23.651Z,26.00
2018-07-21T02:55:26.499Z,23.25
2018-07-21T02:56:29.692Z,26.50
2018-07-21T02:57:32.568Z,27.00
2018-07-21T02:58:35.442Z,25.50
2018-07-21T02:59:38.298Z,26.00
2018-07-21T03:00:41.120Z,27.00
2018-07-21T03:01:43.930Z,25.25
2018-07-21T03:02:49.026Z,25.75
2018-07-21T03:03:52.558Z,25.25
2018-07-21T03:04:56.690Z,25.25
2018-07-21T03:06:01.443Z,27.50
2018-07-21T03:07:04.960Z,25.00
2018-07-21T03:08:07.982Z,24.75
2018-07-21T03:09:12.626Z,26.50
2018-07-21T03:10:15.651Z,24.50
2018-07-21T03:11:19.554Z,24.75
2018-07-21T03:12:22.440Z,25.00
2018-07-21T03:13:28.713Z,20.50
2018-07-21T03:14:31.511Z,21.25
2018-07-21T03:15:35.512Z,21.25
2018-07-21T03:16:38.594Z,20.50
2018-07-21T03:17:41.470Z,18.75
2018-07-21T03:18:44.438Z,19.25
2018-07-21T03:19:47.542Z,19.50
2018-07-21T03:20:50.473Z,18.50
2018-07-21T03:21:53.674Z,19.75
2018-07-21T03:22:57.179Z,17.75
2018-07-21T03:24:00.222Z,16.50
2018-07-21T03:25:03.941Z,18.25
2018-07-21T03:26:06.990Z,18.00
2018-07-21T03:27:09.825Z,19.00
2018-07-21T03:28:13.192Z,18.00
2018-07-21T03:29:18.074Z,16.75
2018-07-21T03:30:20.987Z,16.50
2018-07-21T03:31:23.887Z,16.75
2018-07-21T03:32:26.700Z,18.75
2018-07-21T03:33:29.613Z,16.75
2018-07-21T03:34:32.864Z,16.50
2018-07-21T03:35:35.781Z,19.75
2018-07-21T03:36:38.671Z,17.25
2018-07-21T03:37:41.648Z,18.50
2018-07-21T03:38:44.500Z,18.00
2018-07-21T03:39:47.337Z,18.00
2018-07-21T03:40:50.494Z,17.00
2018-07-21T03:41:53.349Z,16.00
2018-07-21T03:42:56.190Z,16.25
2018-07-21T03:43:59.129Z,16.00
2018-07-21T03:45:01.973Z,17.75
2018-07-21T03:46:04.924Z,17.00
2018-07-21T03:47:08.279Z,17.75
2018-07-21T03:48:11.121Z,17.00
2018-07-21T03:49:14.841Z,17.00
2018-07-21T03:50:17.751Z,18.25
2018-07-21T03:51:20.602Z,15.75
2018-07-21T03:52:23.431Z,17.25
2018-07-21T03:53:26.532Z,16.00
2018-07-21T03:54:29.474Z,21.50
2018-07-21T03:55:32.575Z,24.00
2018-07-21T03:56:35.411Z,23.50
2018-07-21T03:57:39.215Z,23.00
2018-07-21T03:58:43.021Z,24.00
2018-07-21T03:59:46.392Z,26.50
2018-07-21T04:00:49.311Z,23.25
2018-07-21T04:01:52.202Z,23.50
2018-07-21T04:02:55.252Z,24.00
2018-07-21T04:04:03.059Z,24.00
2018-07-21T04:05:07.157Z,24.75
2018-07-21T04:06:10.654Z,24.00
2018-07-21T04:07:14.550Z,24.50
2018-07-21T04:08:18.358Z,23.50
2018-07-21T04:09:21.389Z,23.00
2018-07-21T04:10:24.296Z,23.75
2018-07-21T04:11:27.179Z,23.50
2018-07-21T04:12:30.297Z,24.00
2018-07-21T04:13:33.813Z,23.75
2018-07-21T04:14:36.685Z,24.00
2018-07-21T04:15:41.975Z,24.00
2018-07-21T04:16:45.374Z,24.00
2018-07-21T04:17:49.667Z,24.00
2018-07-21T04:18:52.792Z,26.50
2018-07-21T04:19:56.611Z,27.00
2018-07-21T04:21:00.314Z,24.00
2018-07-21T04:22:03.601Z,24.50
2018-07-21T04:24:16.447Z,25.50
2018-07-21T04:25:20.526Z,24.00
2018-07-21T04:26:23.346Z,26.75
2018-07-21T04:27:26.210Z,24.25
2018-07-21T04:28:29.398Z,23.25
2018-07-21T04:29:36.820Z,26.50
2018-07-21T04:30:40.580Z,27.50
2018-07-21T04:31:44.741Z,26.00
2018-07-21T04:32:56.378Z,26.50
2018-07-21T04:34:02.678Z,24.25
2018-07-21T04:35:10.401Z,24.00
2018-07-21T04:36:16.011Z,26.75
2018-07-21T04:37:21.703Z,25.75
2018-07-21T04:38:26.210Z,27.75
2018-07-21T04:40:42.615Z,26.25
2018-07-21T04:43:04.769Z,27.25
2018-07-21T04:44:08.427Z,28.75
2018-07-21T04:45:11.884Z,27.75
2018-07-21T04:46:14.980Z,25.75
2018-07-21T04:47:19.216Z,27.25
2018-07-21T04:48:22.215Z,28.25
2018-07-21T04:49:26.424Z,26.00
2018-07-21T04:50:35.466Z,25.75
2018-07-21T04:51:39.775Z,26.50
2018-07-21T04:56:24.164Z,26.00
2018-07-21T04:58:42.554Z,25.50
2018-07-21T04:59:45.716Z,24.25
2018-07-21T05:00:50.034Z,23.00
2018-07-21T05:01:54.557Z,25.25
2018-07-21T05:02:59.797Z,22.75
2018-07-21T05:04:06.748Z,22.50
2018-07-21T05:08:51.057Z,25.75
2018-07-21T05:09:55.503Z,24.50
2018-07-21T05:10:59.309Z,22.25
2018-07-21T05:12:02.195Z,24.00
2018-07-21T05:14:08.659Z,22.75
2018-07-21T05:16:26.032Z,24.00
2018-07-21T05:17:30.950Z,23.00
2018-07-21T05:18:36.032Z,22.75
2018-07-21T05:19:38.941Z,23.50
2018-07-21T05:21:59.861Z,23.50
2018-07-21T05:23:07.545Z,22.00
2018-07-21T05:24:12.222Z,22.75
2018-07-21T05:25:15.905Z,22.25
2018-07-21T05:26:19.576Z,23.25
2018-07-21T05:27:24.120Z,23.00
2018-07-21T05:28:28.125Z,23.00
2018-07-21T05:29:31.445Z,23.00
2018-07-21T05:30:35.798Z,23.25
2018-07-21T05:31:40.523Z,24.50
2018-07-21T05:32:49.184Z,22.50
2018-07-21T05:33:52.727Z,21.00
2018-07-21T05:34:55.712Z,22.00
2018-07-21T05:35:59.247Z,22.75
2018-07-21T05:37:03.177Z,23.25
2018-07-21T05:38:07.152Z,23.75
2018-07-21T05:39:11.924Z,22.50
2018-07-21T05:40:16.003Z,23.00
2018-07-21T05:41:23.471Z,22.75
2018-07-21T05:42:26.947Z,21.25
2018-07-21T05:44:48.848Z,23.25
2018-07-21T05:45:51.865Z,22.50
2018-07-21T05:46:54.841Z,20.50
2018-07-21T05:48:01.693Z,21.50
2018-07-21T05:50:26.909Z,22.00
2018-07-21T05:51:31.578Z,18.75
2018-07-21T05:52:34.560Z,21.25
2018-07-21T05:53:37.734Z,22.75
2018-07-21T05:54:40.984Z,20.00
2018-07-21T05:55:44.129Z,22.00
2018-07-21T05:56:54.682Z,20.50
2018-07-21T06:38:36.912Z,23.75
2018-07-21T06:39:43.656Z,23.50
2018-07-21T06:40:46.689Z,24.25
2018-07-21T06:41:51.395Z,23.25
2018-07-21T06:42:54.500Z,22.75
2018-07-21T06:43:58.730Z,23.50
2018-07-21T06:48:04.028Z,21.00
2018-07-21T06:52:02.671Z,24.00
2018-07-21T06:53:10.119Z,24.50
2018-07-21T06:54:30.583Z,25.00
2018-07-21T06:55:36.744Z,25.50
2018-07-21T06:56:40.112Z,21.75
2018-07-21T06:57:45.757Z,22.75
2018-07-21T06:58:49.084Z,24.75
2018-07-21T07:01:06.729Z,25.75
2018-07-21T07:02:11.392Z,22.50
2018-07-21T07:03:14.286Z,26.00
2018-07-21T07:04:18.954Z,23.75
2018-07-21T07:05:21.876Z,25.75
2018-07-21T07:06:26.274Z,24.00
2018-07-21T07:07:30.415Z,25.25
2018-07-21T07:08:37.012Z,25.75
2018-07-21T07:09:41.319Z,25.25
2018-07-21T07:10:46.987Z,26.75
2018-07-21T07:11:50.289Z,24.50
2018-07-21T07:12:53.215Z,25.00
2018-07-21T07:15:10.235Z,24.75
2018-07-21T07:16:13.107Z,22.50
2018-07-21T07:17:16.295Z,25.75
2018-07-21T07:18:19.164Z,24.50
2018-07-21T07:19:22.173Z,25.00
2018-07-21T07:20:25.835Z,25.00
2018-07-21T07:21:31.516Z,24.25
2018-07-21T07:22:34.792Z,25.00
2018-07-21T07:23:37.746Z,25.00
2018-07-21T07:24:41.559Z,25.00
2018-07-21T07:26:58.448Z,25.00
2018-07-21T07:28:01.376Z,23.00
2018-07-21T07:29:04.279Z,24.25
2018-07-21T07:30:07.215Z,24.50
2018-07-21T07:31:15.117Z,25.00
2018-07-21T07:32:19.641Z,25.25
2018-07-21T07:33:22.664Z,24.50
2018-07-21T07:34:27.318Z,23.75
2018-07-21T07:35:32.909Z,24.00
2018-07-21T07:36:37.055Z,25.00
2018-07-21T07:37:51.646Z,22.50
2018-07-21T07:38:56.432Z,25.00
2018-07-21T07:40:01.125Z,22.50
2018-07-21T07:41:05.008Z,23.75
2018-07-21T07:42:08.222Z,22.25
2018-07-21T07:43:12.051Z,23.25
2018-07-21T07:44:16.465Z,25.00
2018-07-21T07:45:19.460Z,27.25
2018-07-21T07:46:23.669Z,24.50
2018-07-21T07:48:36.929Z,25.00
2018-07-21T07:50:59.606Z,32.00
2018-07-21T07:52:02.522Z,25.00
2018-07-21T07:53:05.465Z,25.00
2018-07-21T07:54:09.426Z,24.75
2018-07-21T07:55:14.766Z,23.50
2018-07-21T07:56:18.346Z,25.25
2018-07-21T07:58:44.467Z,24.25
2018-07-21T07:59:54.259Z,24.00
2018-07-21T08:00:57.154Z,25.75
2018-07-21T08:02:00.625Z,25.00
2018-07-21T08:03:04.329Z,25.00
2018-07-21T08:04:07.303Z,25.50
2018-07-21T08:05:10.366Z,29.00
2018-07-21T08:06:13.262Z,30.00
2018-07-21T08:07:16.139Z,30.00
2018-07-21T08:08:19.146Z,27.75
2018-07-21T08:09:22.433Z,25.00
2018-07-21T08:10:25.383Z,25.00
2018-07-21T08:11:28.296Z,22.75
2018-07-21T08:12:32.310Z,25.00
2018-07-21T08:13:35.302Z,24.25
2018-07-21T08:14:38.798Z,22.75
2018-07-21T08:15:49.418Z,22.50
2018-07-21T08:16:59.818Z,22.75
2018-07-21T08:18:03.748Z,24.00
2018-07-21T08:19:07.328Z,25.00
2018-07-21T08:20:10.255Z,28.75
2018-07-21T08:21:13.193Z,27.50
2018-07-21T08:22:16.614Z,24.75
2018-07-21T08:23:19.497Z,25.25
2018-07-21T08:24:22.447Z,25.00
2018-07-21T08:25:26.159Z,25.25
2018-07-21T08:26:34.408Z,25.00
2018-07-21T08:27:43.225Z,26.75
2018-07-21T08:28:49.822Z,23.50
2018-07-21T08:29:52.815Z,24.00
2018-07-21T08:30:58.094Z,23.75
2018-07-21T08:32:01.637Z,25.00
2018-07-21T08:33:04.752Z,24.75
2018-07-21T08:34:08.209Z,24.75
2018-07-21T08:35:11.149Z,25.00
2018-07-21T08:36:14.115Z,25.00
2018-07-21T08:37:17.063Z,25.00
2018-07-21T08:38:19.979Z,24.75
2018-07-21T08:39:23.459Z,24.75
2018-07-21T08:40:26.337Z,24.00
2018-07-21T08:41:29.274Z,23.75
2018-07-21T08:42:32.219Z,25.00
2018-07-21T08:43:36.151Z,22.00
2018-07-21T08:44:39.084Z,22.00
2018-07-21T08:45:46.901Z,26.00
2018-07-21T08:46:49.888Z,25.00
2018-07-21T08:47:53.648Z,22.75
2018-07-21T08:48:56.572Z,24.75
2018-07-21T08:50:00.386Z,23.75
2018-07-21T08:51:03.285Z,23.00
2018-07-21T08:52:06.551Z,27.75
2018-07-21T08:53:11.163Z,27.75
2018-07-21T08:54:14.330Z,24.00
2018-07-21T08:55:17.865Z,28.00
2018-07-21T08:56:20.826Z,27.00
2018-07-21T08:57:24.311Z,27.00
2018-07-21T08:58:29.396Z,26.75
2018-07-21T08:59:32.335Z,26.00
2018-07-21T09:00:35.202Z,24.00
2018-07-21T09:01:38.114Z,22.75
2018-07-21T09:02:41.136Z,27.00
2018-07-21T09:03:45.234Z,25.00
2018-07-21T09:04:48.729Z,26.25
2018-07-21T09:05:51.840Z,26.75
2018-07-21T09:06:54.955Z,24.00
2018-07-21T09:07:57.867Z,23.25
2018-07-21T09:09:02.087Z,25.75
2018-07-21T09:10:36.319Z,24.00
2018-07-21T09:11:39.296Z,23.75
2018-07-21T09:12:42.300Z,21.25
2018-07-21T09:13:45.798Z,22.00
2018-07-21T09:14:48.881Z,23.75
2018-07-21T09:15:51.816Z,23.00
2018-07-21T09:16:55.139Z,27.00
2018-07-21T09:17:58.116Z,26.25
2018-07-21T09:19:05.250Z,24.00
2018-07-21T09:20:08.908Z,24.00
2018-07-21T09:21:13.020Z,27.00
2018-07-21T09:22:16.529Z,20.00
2018-07-21T09:23:21.257Z,23.00
2018-07-21T09:24:25.164Z,23.75
2018-07-21T09:25:29.990Z,26.75
2018-07-21T09:26:33.570Z,25.75
2018-07-21T09:27:36.777Z,26.00
2018-07-21T09:28:40.440Z,24.00
2018-07-21T09:29:45.254Z,26.25
2018-07-21T09:30:48.753Z,23.75
2018-07-21T09:31:52.266Z,26.25
2018-07-21T09:32:57.258Z,24.25
2018-07-21T09:34:01.823Z,22.50
2018-07-21T09:35:06.422Z,21.25
2018-07-21T09:36:11.445Z,24.00
2018-07-21T09:37:15.136Z,22.25
2018-07-21T09:38:19.067Z,22.75
2018-07-21T09:39:21.962Z,20.75
2018-07-21T09:40:24.850Z,20.50
2018-07-21T09:41:27.753Z,22.25
2018-07-21T09:42:31.023Z,23.00
2018-07-21T09:43:33.942Z,23.75
2018-07-21T09:44:37.278Z,21.25
2018-07-21T09:45:41.299Z,22.50
2018-07-21T09:46:45.190Z,23.00
2018-07-21T09:47:49.655Z,22.25
2018-07-21T09:48:58.586Z,22.50
2018-07-21T09:50:03.445Z,24.00
2018-07-21T09:51:07.126Z,24.00
2018-07-21T09:52:16.627Z,22.75
2018-07-21T09:53:19.603Z,22.25
2018-07-21T09:54:22.595Z,20.50
2018-07-21T09:55:26.427Z,24.00
2018-07-21T09:56:30.384Z,21.50
2018-07-21T09:57:33.359Z,18.75
2018-07-21T09:58:41.125Z,22.50
2018-07-21T09:59:46.506Z,21.75
2018-07-21T10:00:56.397Z,23.00
2018-07-21T10:01:59.285Z,20.75
2018-07-21T10:03:05.619Z,21.50
2018-07-21T10:04:08.661Z,24.00
2018-07-21T10:05:12.192Z,24.50
2018-07-21T10:06:15.171Z,23.75
2018-07-21T10:07:20.153Z,23.50
2018-07-21T10:08:24.442Z,24.00
2018-07-21T10:09:27.387Z,22.25
2018-07-21T10:10:30.401Z,20.25
2018-07-21T10:11:34.729Z,19.00
2018-07-21T10:12:37.586Z,22.25
2018-07-21T10:13:40.769Z,24.00
2018-07-21T10:14:43.647Z,24.00
2018-07-21T10:15:46.612Z,22.75
2018-07-21T10:16:49.497Z,23.75
2018-07-21T10:17:53.072Z,23.75
2018-07-21T10:18:56.500Z,22.75
2018-07-21T10:19:59.708Z,21.00
2018-07-21T10:21:02.971Z,22.25
2018-07-21T10:22:06.733Z,21.25
2018-07-21T10:23:09.603Z,22.00
2018-07-21T10:24:17.395Z,23.00
2018-07-21T10:25:26.282Z,23.50
2018-07-21T10:26:33.939Z,24.50
2018-07-21T10:27:42.848Z,25.50
2018-07-21T10:28:52.657Z,22.50
2018-07-21T10:29:55.560Z,26.25
2018-07-21T10:30:58.433Z,23.50
2018-07-21T10:32:01.349Z,23.00
2018-07-21T10:33:07.432Z,22.50
2018-07-21T10:34:11.033Z,21.00
2018-07-21T10:35:13.940Z,23.00
2018-07-21T10:36:17.485Z,22.75
2018-07-21T10:37:23.658Z,23.00
2018-07-21T10:38:26.633Z,23.00
2018-07-21T10:39:29.618Z,23.00
2018-07-21T10:40:33.200Z,22.75
2018-07-21T10:41:37.413Z,22.50
2018-07-21T10:42:40.431Z,22.75
2018-07-21T10:43:43.338Z,23.00
2018-07-21T10:44:46.317Z,23.00
2018-07-21T10:45:50.951Z,21.50
2018-07-21T10:46:56.541Z,23.00
2018-07-21T10:48:00.044Z,23.00
2018-07-21T10:49:06.027Z,22.25
2018-07-21T10:50:10.387Z,23.00
2018-07-21T10:51:13.314Z,22.25
2018-07-21T10:52:17.459Z,23.25
2018-07-21T10:53:28.299Z,22.50
2018-07-21T10:54:42.852Z,23.00
2018-07-21T11:09:52.574Z,21.75
2018-07-21T11:14:41.276Z,15.75
2018-07-21T11:15:45.834Z,17.25
2018-07-21T11:16:50.643Z,15.00
2018-07-21T11:17:53.492Z,15.50
2018-07-21T11:18:56.945Z,14.50
2018-07-21T11:20:00.856Z,14.75
2018-07-21T11:21:03.790Z,16.25
2018-07-21T11:22:06.700Z,15.50
2018-07-21T11:23:09.984Z,15.50
2018-07-21T11:24:17.475Z,14.75
2018-07-21T11:25:21.324Z,17.00
2018-07-21T11:26:30.316Z,15.25
2018-07-21T11:27:34.554Z,11.50
2018-07-21T11:28:38.707Z,11.00
2018-07-21T11:29:48.044Z,12.25
2018-07-21T11:30:54.564Z,13.75
2018-07-21T11:31:59.105Z,13.00
2018-07-21T11:33:03.480Z,15.25
2018-07-21T11:34:07.364Z,15.25
2018-07-21T11:36:37.032Z,15.75
2018-07-21T11:37:42.307Z,17.25
2018-07-21T11:38:46.520Z,16.00
2018-07-21T11:39:49.319Z,17.75
2018-07-21T11:40:52.226Z,18.25
2018-07-21T11:41:56.167Z,16.00
2018-07-21T11:42:59.234Z,16.75
2018-07-21T11:44:02.772Z,19.00
2018-07-21T11:45:05.962Z,18.75
2018-07-21T11:46:09.230Z,19.50
2018-07-21T11:47:12.059Z,19.00
2018-07-21T11:48:15.318Z,19.25
2018-07-21T11:49:18.332Z,16.75
2018-07-21T11:50:21.229Z,19.25
2018-07-21T11:51:24.115Z,19.00
2018-07-21T11:52:26.983Z,18.75
2018-07-21T11:53:29.881Z,16.00
2018-07-21T11:54:33.523Z,18.00
2018-07-21T11:55:36.454Z,17.50
2018-07-21T11:56:39.304Z,20.25
2018-07-21T11:57:42.417Z,19.25
2018-07-21T11:58:45.438Z,19.25
2018-07-21T11:59:49.510Z,19.25
2018-07-21T12:00:52.699Z,16.50
2018-07-21T12:01:55.665Z,17.25
2018-07-21T12:02:58.578Z,19.75
2018-07-21T12:04:02.447Z,19.00
2018-07-21T12:05:05.346Z,19.00
2018-07-21T12:06:11.280Z,14.75
2018-07-21T12:07:16.328Z,18.00
2018-07-21T12:08:22.339Z,16.75
2018-07-21T12:09:25.480Z,16.50
2018-07-21T12:10:29.489Z,16.00
2018-07-21T12:11:32.391Z,15.25
2018-07-21T12:12:35.380Z,16.75
2018-07-21T12:13:38.558Z,14.25
2018-07-21T12:14:42.252Z,15.75
2018-07-21T12:15:46.122Z,18.00
2018-07-21T12:16:49.751Z,17.75
2018-07-21T12:17:52.615Z,16.75
2018-07-21T12:18:56.092Z,14.75
2018-07-21T12:20:00.408Z,14.25
2018-07-21T12:21:16.924Z,18.50
2018-07-21T12:22:20.067Z,15.25
2018-07-21T12:23:22.922Z,14.00
2018-07-21T12:24:25.899Z,16.00
2018-07-21T12:25:33.112Z,14.00
2018-07-21T12:26:39.138Z,14.75
2018-07-21T12:27:46.253Z,14.75
2018-07-21T12:28:49.838Z,14.00
2018-07-21T12:29:58.764Z,13.75
2018-07-21T12:31:02.980Z,13.00
2018-07-21T12:32:09.570Z,12.50
2018-07-21T12:33:13.704Z,13.25
2018-07-21T12:34:19.257Z,12.25
2018-07-21T12:35:23.714Z,12.50
2018-07-21T12:36:28.579Z,12.75
2018-07-21T12:37:32.396Z,12.75
2018-07-21T12:38:36.289Z,12.00
2018-07-21T12:39:39.693Z,13.00
2018-07-21T12:40:42.552Z,13.00
2018-07-21T12:41:45.950Z,13.25
2018-07-21T12:42:48.885Z,12.00
2018-07-21T12:43:51.739Z,13.50
2018-07-21T12:44:54.671Z,13.00
2018-07-21T12:46:00.617Z,12.75
2018-07-21T12:47:15.176Z,12.75
2018-07-21T12:48:19.238Z,12.50
2018-07-21T12:49:28.217Z,13.50
2018-07-21T12:50:32.417Z,12.00
2018-07-21T12:51:37.326Z,13.50
2018-07-21T12:52:45.062Z,12.25
2018-07-21T12:53:52.099Z,13.00
2018-07-21T12:54:56.381Z,11.50
2018-07-21T12:56:00.345Z,12.25
2018-07-21T12:57:05.282Z,11.50
2018-07-21T12:58:11.162Z,11.25
2018-07-21T12:59:16.834Z,14.75
2018-07-21T13:00:21.376Z,12.25
2018-07-21T13:01:26.074Z,12.50
2018-07-21T13:02:43.997Z,13.25
2018-07-21T13:03:53.362Z,12.00
2018-07-21T13:04:57.666Z,13.00
2018-07-21T13:06:04.539Z,13.00
2018-07-21T13:07:13.109Z,13.00
2018-07-21T13:08:18.878Z,13.00
2018-07-21T13:10:34.620Z,12.00
2018-07-21T13:11:43.693Z,15.75
2018-07-21T13:12:48.736Z,13.00
2018-07-21T13:15:06.241Z,12.75
2018-07-21T13:16:10.779Z,11.00
2018-07-21T13:17:15.703Z,13.25
2018-07-21T13:18:28.026Z,12.25
2018-07-21T13:19:35.581Z,10.75
2018-07-21T13:20:44.240Z,12.75
2018-07-21T13:21:47.804Z,12.25
2018-07-21T13:22:51.633Z,12.25
2018-07-21T13:23:56.484Z,13.00
2018-07-21T13:25:02.200Z,14.75
2018-07-21T13:26:05.665Z,13.00
2018-07-21T13:27:10.280Z,12.75
2018-07-21T13:28:13.193Z,13.50
2018-07-21T13:29:16.732Z,10.00
2018-07-21T13:30:26.635Z,11.75
2018-07-21T13:31:38.330Z,13.75
2018-07-21T13:32:41.564Z,13.50
2018-07-21T13:33:44.469Z,14.25
2018-07-21T13:34:47.478Z,13.25
2018-07-21T13:35:50.497Z,14.00
2018-07-21T13:36:53.793Z,11.25
2018-07-21T13:37:58.066Z,12.75
2018-07-21T13:39:01.960Z,9.75
2018-07-21T13:40:05.373Z,13.50
2018-07-21T13:41:11.117Z,10.50
2018-07-21T13:42:15.846Z,10.00
2018-07-21T13:43:24.495Z,9.50
2018-07-21T13:44:33.691Z,10.50
2018-07-21T13:45:41.527Z,9.25
2018-07-21T13:46:45.458Z,9.00
2018-07-21T13:47:50.067Z,7.00
2018-07-21T13:48:54.378Z,5.00
2018-07-21T13:50:02.747Z,6.75
2018-07-21T13:51:06.800Z,7.00
2018-07-21T13:52:12.366Z,6.75
2018-07-21T13:53:18.060Z,6.75
2018-07-21T13:54:20.975Z,5.75
2018-07-21T13:55:24.024Z,6.75
2018-07-21T13:56:27.762Z,6.75
2018-07-21T13:57:30.789Z,6.50
2018-07-21T13:58:34.361Z,7.00
2018-07-21T13:59:38.371Z,6.00
2018-07-21T14:00:43.574Z,8.00
2018-07-21T14:01:47.788Z,6.00
2018-07-21T14:02:52.841Z,8.00
2018-07-21T14:03:55.961Z,7.75
2018-07-21T14:06:08.231Z,6.00
2018-07-21T14:07:14.029Z,8.25
2018-07-21T14:08:18.988Z,7.75
2018-07-21T14:09:24.325Z,7.75
2018-07-21T14:10:28.410Z,8.25
2018-07-21T14:11:34.050Z,8.25
2018-07-21T14:12:38.236Z,7.50
2018-07-21T14:14:56.514Z,10.00
2018-07-21T14:18:29.796Z,9.00
2018-07-21T14:19:34.473Z,10.00
2018-07-21T14:20:38.088Z,11.00
2018-07-21T14:21:41.732Z,11.50
2018-07-21T14:22:45.185Z,11.00
2018-07-21T14:23:48.769Z,10.25
2018-07-21T14:24:53.315Z,9.50
2018-07-21T14:25:58.561Z,10.50
2018-07-21T14:27:05.068Z,10.75
2018-07-21T14:28:09.619Z,11.00
2018-07-21T14:29:17.337Z,10.75
2018-07-21T14:30:21.673Z,11.00
2018-07-21T14:31:25.093Z,10.00
2018-07-21T14:33:38.841Z,11.25
2018-07-21T14:34:46.349Z,12.00
2018-07-21T14:35:55.956Z,11.00
2018-07-21T14:37:04.314Z,13.25
2018-07-21T14:38:19.190Z,10.50
2018-07-21T14:39:30.099Z,13.50
2018-07-21T14:40:42.107Z,11.75
2018-07-21T14:41:47.715Z,13.50
2018-07-21T14:42:51.385Z,11.25
2018-07-21T14:47:40.315Z,14.00
2018-07-21T14:51:38.289Z,14.00
2018-07-21T14:54:50.737Z,12.50
2018-07-21T14:59:09.241Z,13.25
2018-07-21T15:02:44.749Z,13.00
2018-07-21T15:03:52.163Z,12.50
2018-07-21T15:06:17.773Z,14.25
2018-07-21T15:07:22.551Z,14.50
2018-07-21T15:09:01.705Z,15.25
2018-07-21T15:11:19.254Z,13.00
2018-07-21T15:12:27.512Z,14.00
2018-07-21T15:13:35.640Z,14.00
2018-07-21T15:17:05.965Z,15.50
2018-07-21T15:19:30.815Z,13.75
2018-07-21T15:20:33.713Z,15.00
2018-07-21T15:21:37.229Z,12.25
2018-07-21T15:22:40.639Z,14.00
2018-07-21T15:23:46.361Z,14.00
2018-07-21T15:24:49.683Z,14.00
2018-07-21T15:25:52.739Z,14.50
2018-07-21T15:26:55.589Z,14.00
2018-07-21T15:27:59.382Z,13.75
2018-07-21T15:29:04.265Z,14.50
2018-07-21T15:30:08.574Z,14.00
2018-07-21T15:31:17.466Z,13.00
2018-07-21T15:32:20.371Z,16.00
2018-07-21T15:33:23.932Z,15.25
2018-07-21T15:34:27.852Z,13.00
2018-07-21T15:35:32.574Z,12.75
2018-07-21T15:36:38.613Z,14.00
2018-07-21T15:37:41.795Z,13.25
2018-07-21T15:38:44.667Z,13.75
2018-07-21T15:39:47.773Z,14.00
2018-07-21T15:40:57.356Z,14.25
2018-07-21T15:42:00.348Z,13.00
2018-07-21T15:43:04.964Z,13.25
2018-07-21T15:44:08.506Z,15.00
2018-07-21T15:45:12.359Z,13.00
2018-07-21T15:46:16.876Z,13.50
2018-07-21T15:47:20.932Z,15.25
2018-07-21T15:48:23.848Z,13.75
2018-07-21T15:49:26.830Z,13.75
2018-07-21T16:02:21.707Z,14.75